sensor_id;sensor_type;location;lat;lon;timestamp;pressure;altitude;pressure_sealevel;temperature;humidity
45813;BME280;31519;45.408;10.962;2023-12-14T00:00:52;99663.19;;;9.55;100.00
45813;BME280;31519;45.408;10.962;2023-12-14T00:03:34;99668.53;;;9.46;100.00
45813;BME280;31519;45.408;10.962;2023-12-14T00:06:02;99666.13;;;9.70;100.00
45813;BME280;31519;45.408;10.962;2023-12-14T00:08:31;99662.78;;;9.82;100.00
45813;BME280;31519;45.408;10.962;2023-12-14T00:11:10;99666.63;;;9.64;100.00
45813;BME280;31519;45.408;10.962;2023-12-14T00:13:39;99665.81;;;9.63;100.00
45813;BME280;31519;45.408;10.962;2023-12-14T00:16:08;99676.66;;;9.50;100.00
45813;BME280;31519;45.408;10.962;2023-12-14T00:18:36;99685.53;;;9.71;100.00
45813;BME280;31519;45.408;10.962;2023-12-14T00:21:05;99689.41;;;9.82;100.00
45813;BME280;31519;45.408;10.962;2023-12-14T00:23:34;99676.97;;;10.03;100.00
45813;BME280;31519;45.408;10.962;2023-12-14T00:26:02;99683.03;;;10.12;100.00
45813;BME280;31519;45.408;10.962;2023-12-14T00:28:31;99680.03;;;10.14;100.00
45813;BME280;31519;45.408;10.962;2023-12-14T00:31:02;99687.44;;;10.17;100.00
45813;BME280;31519;45.408;10.962;2023-12-14T00:33:30;99679.75;;;10.07;100.00
45813;BME280;31519;45.408;10.962;2023-12-14T00:35:59;99691.69;;;10.01;100.00
45813;BME280;31519;45.408;10.962;2023-12-14T00:38:27;99698.22;;;10.20;100.00
45813;BME280;31519;45.408;10.962;2023-12-14T00:40:55;99704.31;;;10.21;100.00
45813;BME280;31519;45.408;10.962;2023-12-14T00:43:23;99706.63;;;10.22;100.00
45813;BME280;31519;45.408;10.962;2023-12-14T00:45:52;99704.94;;;9.71;100.00
45813;BME280;31519;45.408;10.962;2023-12-14T00:48:20;99720.88;;;9.80;100.00
45813;BME280;31519;45.408;10.962;2023-12-14T00:50:49;99720.75;;;9.59;100.00
45813;BME280;31519;45.408;10.962;2023-12-14T00:53:17;99707.13;;;9.69;100.00
45813;BME280;31519;45.408;10.962;2023-12-14T00:55:46;99699.59;;;9.80;100.00
45813;BME280;31519;45.408;10.962;2023-12-14T00:58:14;99709.00;;;9.60;100.00
45813;BME280;31519;45.408;10.962;2023-12-14T01:00:42;99709.50;;;9.62;100.00
45813;BME280;31519;45.408;10.962;2023-12-14T01:03:10;99714.31;;;9.69;100.00
45813;BME280;31519;45.408;10.962;2023-12-14T01:05:39;99716.81;;;9.74;100.00
45813;BME280;31519;45.408;10.962;2023-12-14T01:08:07;99722.00;;;9.53;100.00
45813;BME280;31519;45.408;10.962;2023-12-14T01:10:36;99713.75;;;9.38;100.00
45813;BME280;31519;45.408;10.962;2023-12-14T01:13:04;99716.03;;;9.65;100.00
45813;BME280;31519;45.408;10.962;2023-12-14T01:15:33;99719.94;;;9.59;100.00
45813;BME280;31519;45.408;10.962;2023-12-14T01:18:01;99729.97;;;9.53;100.00
45813;BME280;31519;45.408;10.962;2023-12-14T01:20:29;99737.47;;;9.60;100.00
45813;BME280;31519;45.408;10.962;2023-12-14T01:22:58;99742.00;;;9.68;100.00
45813;BME280;31519;45.408;10.962;2023-12-14T01:25:26;99737.63;;;9.63;100.00
45813;BME280;31519;45.408;10.962;2023-12-14T01:27:55;99744.69;;;9.42;100.00
45813;BME280;31519;45.408;10.962;2023-12-14T01:30:23;99740.91;;;9.60;100.00
45813;BME280;31519;45.408;10.962;2023-12-14T01:32:51;99749.19;;;9.59;100.00
45813;BME280;31519;45.408;10.962;2023-12-14T01:35:20;99747.00;;;9.69;100.00
45813;BME280;31519;45.408;10.962;2023-12-14T01:37:48;99752.63;;;9.68;100.00
45813;BME280;31519;45.408;10.962;2023-12-14T01:40:19;99757.19;;;9.59;100.00
45813;BME280;31519;45.408;10.962;2023-12-14T01:42:47;99756.25;;;9.55;100.00
45813;BME280;31519;45.408;10.962;2023-12-14T01:45:16;99757.75;;;9.82;100.00
45813;BME280;31519;45.408;10.962;2023-12-14T01:47:44;99763.13;;;9.64;100.00
45813;BME280;31519;45.408;10.962;2023-12-14T01:50:13;99767.78;;;9.67;100.00
45813;BME280;31519;45.408;10.962;2023-12-14T01:52:41;99764.03;;;9.77;100.00
45813;BME280;31519;45.408;10.962;2023-12-14T01:55:10;99767.97;;;9.71;100.00
45813;BME280;31519;45.408;10.962;2023-12-14T01:57:38;99770.28;;;9.72;100.00
45813;BME280;31519;45.408;10.962;2023-12-14T02:00:06;99767.03;;;9.67;100.00
45813;BME280;31519;45.408;10.962;2023-12-14T02:02:34;99770.47;;;9.50;100.00
45813;BME280;31519;45.408;10.962;2023-12-14T02:05:04;99768.91;;;9.49;100.00
45813;BME280;31519;45.408;10.962;2023-12-14T02:07:32;99766.38;;;9.78;100.00
45813;BME280;31519;45.408;10.962;2023-12-14T02:10:01;99762.81;;;9.57;100.00
45813;BME280;31519;45.408;10.962;2023-12-14T02:12:29;99760.13;;;9.74;100.00
45813;BME280;31519;45.408;10.962;2023-12-14T02:14:57;99752.41;;;9.90;100.00
45813;BME280;31519;45.408;10.962;2023-12-14T02:17:25;99754.94;;;9.87;100.00
45813;BME280;31519;45.408;10.962;2023-12-14T02:19:54;99751.66;;;9.90;100.00
45813;BME280;31519;45.408;10.962;2023-12-14T02:22:22;99752.56;;;10.02;100.00
45813;BME280;31519;45.408;10.962;2023-12-14T02:24:50;99753.19;;;9.91;100.00
45813;BME280;31519;45.408;10.962;2023-12-14T02:27:18;99753.06;;;9.87;100.00
45813;BME280;31519;45.408;10.962;2023-12-14T02:29:49;99752.31;;;9.78;100.00
45813;BME280;31519;45.408;10.962;2023-12-14T02:32:17;99753.41;;;9.68;100.00
45813;BME280;31519;45.408;10.962;2023-12-14T02:34:46;99753.56;;;9.72;100.00
45813;BME280;31519;45.408;10.962;2023-12-14T02:37:14;99747.47;;;9.80;100.00
45813;BME280;31519;45.408;10.962;2023-12-14T02:39:42;99744.47;;;9.73;100.00
45813;BME280;31519;45.408;10.962;2023-12-14T02:42:10;99747.31;;;9.68;100.00
45813;BME280;31519;45.408;10.962;2023-12-14T02:44:39;99750.13;;;9.63;100.00
45813;BME280;31519;45.408;10.962;2023-12-14T02:47:07;99753.75;;;9.50;100.00
45813;BME280;31519;45.408;10.962;2023-12-14T02:49:36;99760.66;;;9.33;100.00
45813;BME280;31519;45.408;10.962;2023-12-14T02:52:04;99767.50;;;9.26;100.00
45813;BME280;31519;45.408;10.962;2023-12-14T02:54:32;99767.66;;;9.12;100.00
45813;BME280;31519;45.408;10.962;2023-12-14T02:57:00;99772.06;;;9.25;100.00
45813;BME280;31519;45.408;10.962;2023-12-14T02:59:29;99773.75;;;9.21;100.00
45813;BME280;31519;45.408;10.962;2023-12-14T03:01:57;99766.41;;;9.44;100.00
45813;BME280;31519;45.408;10.962;2023-12-14T03:04:25;99760.63;;;9.42;100.00
45813;BME280;31519;45.408;10.962;2023-12-14T03:06:53;99769.69;;;9.07;100.00
45813;BME280;31519;45.408;10.962;2023-12-14T03:09:22;99768.28;;;8.92;100.00
45813;BME280;31519;45.408;10.962;2023-12-14T03:11:50;99770.78;;;9.23;100.00
45813;BME280;31519;45.408;10.962;2023-12-14T03:14:18;99767.75;;;8.73;100.00
45813;BME280;31519;45.408;10.962;2023-12-14T03:16:46;99772.69;;;8.49;100.00
45813;BME280;31519;45.408;10.962;2023-12-14T03:19:17;99786.50;;;8.76;100.00
45813;BME280;31519;45.408;10.962;2023-12-14T03:21:45;99784.25;;;8.53;100.00
45813;BME280;31519;45.408;10.962;2023-12-14T03:24:13;99788.50;;;8.00;100.00
45813;BME280;31519;45.408;10.962;2023-12-14T03:26:42;99790.84;;;8.64;100.00
45813;BME280;31519;45.408;10.962;2023-12-14T03:29:11;99793.47;;;8.55;100.00
45813;BME280;31519;45.408;10.962;2023-12-14T03:31:39;99794.81;;;8.44;100.00
45813;BME280;31519;45.408;10.962;2023-12-14T03:34:08;99796.41;;;8.45;100.00
45813;BME280;31519;45.408;10.962;2023-12-14T03:36:36;99799.84;;;8.45;100.00
45813;BME280;31519;45.408;10.962;2023-12-14T03:39:04;99808.75;;;8.19;100.00
45813;BME280;31519;45.408;10.962;2023-12-14T03:41:33;99816.66;;;8.10;100.00
45813;BME280;31519;45.408;10.962;2023-12-14T03:44:02;99827.13;;;8.37;100.00
45813;BME280;31519;45.408;10.962;2023-12-14T03:46:30;99823.13;;;8.26;100.00
45813;BME280;31519;45.408;10.962;2023-12-14T03:48:58;99832.03;;;7.99;100.00
45813;BME280;31519;45.408;10.962;2023-12-14T03:51:26;99832.25;;;8.12;100.00
45813;BME280;31519;45.408;10.962;2023-12-14T03:53:55;99836.63;;;8.16;100.00
45813;BME280;31519;45.408;10.962;2023-12-14T03:56:23;99827.59;;;8.17;100.00
45813;BME280;31519;45.408;10.962;2023-12-14T03:58:52;99830.38;;;8.34;100.00
45813;BME280;31519;45.408;10.962;2023-12-14T04:01:20;99829.84;;;8.24;100.00
45813;BME280;31519;45.408;10.962;2023-12-14T04:03:49;99836.78;;;8.33;100.00
45813;BME280;31519;45.408;10.962;2023-12-14T04:06:17;99836.97;;;8.15;100.00
45813;BME280;31519;45.408;10.962;2023-12-14T04:08:46;99840.91;;;8.26;100.00
45813;BME280;31519;45.408;10.962;2023-12-14T04:11:14;99838.19;;;8.39;100.00
45813;BME280;31519;45.408;10.962;2023-12-14T04:13:42;99839.88;;;8.05;100.00
45813;BME280;31519;45.408;10.962;2023-12-14T04:16:10;99846.28;;;8.12;100.00
45813;BME280;31519;45.408;10.962;2023-12-14T04:18:38;99850.09;;;8.20;100.00
45813;BME280;31519;45.408;10.962;2023-12-14T04:21:08;99857.09;;;8.16;100.00
45813;BME280;31519;45.408;10.962;2023-12-14T04:23:37;99857.03;;;8.07;100.00
45813;BME280;31519;45.408;10.962;2023-12-14T04:26:05;99858.34;;;8.18;100.00
45813;BME280;31519;45.408;10.962;2023-12-14T04:28:33;99847.75;;;8.18;100.00
45813;BME280;31519;45.408;10.962;2023-12-14T04:31:01;99853.47;;;8.12;100.00
45813;BME280;31519;45.408;10.962;2023-12-14T04:33:30;99856.31;;;8.15;100.00
45813;BME280;31519;45.408;10.962;2023-12-14T04:35:59;99850.22;;;8.15;100.00
45813;BME280;31519;45.408;10.962;2023-12-14T04:38:28;99860.19;;;8.31;100.00
45813;BME280;31519;45.408;10.962;2023-12-14T04:40:56;99858.59;;;8.30;100.00
45813;BME280;31519;45.408;10.962;2023-12-14T04:43:24;99864.28;;;8.37;100.00
45813;BME280;31519;45.408;10.962;2023-12-14T04:45:52;99864.91;;;8.21;100.00
45813;BME280;31519;45.408;10.962;2023-12-14T04:48:21;99870.03;;;8.17;100.00
45813;BME280;31519;45.408;10.962;2023-12-14T04:50:49;99872.75;;;8.48;100.00
45813;BME280;31519;45.408;10.962;2023-12-14T04:53:18;99877.63;;;8.55;100.00
45813;BME280;31519;45.408;10.962;2023-12-14T04:55:46;99877.88;;;8.44;100.00
45813;BME280;31519;45.408;10.962;2023-12-14T04:58:15;99882.44;;;8.53;100.00
45813;BME280;31519;45.408;10.962;2023-12-14T05:00:43;99890.16;;;8.63;100.00
45813;BME280;31519;45.408;10.962;2023-12-14T05:03:11;99894.16;;;8.52;100.00
45813;BME280;31519;45.408;10.962;2023-12-14T05:05:40;99890.13;;;8.54;100.00
45813;BME280;31519;45.408;10.962;2023-12-14T05:08:08;99891.84;;;8.59;100.00
45813;BME280;31519;45.408;10.962;2023-12-14T05:10:36;99892.91;;;8.49;100.00
45813;BME280;31519;45.408;10.962;2023-12-14T05:13:05;99886.72;;;8.62;100.00
45813;BME280;31519;45.408;10.962;2023-12-14T05:15:34;99887.00;;;8.52;100.00
45813;BME280;31519;45.408;10.962;2023-12-14T05:18:02;99887.53;;;8.71;100.00
45813;BME280;31519;45.408;10.962;2023-12-14T05:20:30;99893.56;;;8.55;100.00
45813;BME280;31519;45.408;10.962;2023-12-14T05:22:59;99901.84;;;8.62;100.00
45813;BME280;31519;45.408;10.962;2023-12-14T05:25:27;99899.47;;;8.52;100.00
45813;BME280;31519;45.408;10.962;2023-12-14T05:27:56;99897.88;;;8.42;100.00
45813;BME280;31519;45.408;10.962;2023-12-14T05:30:25;99902.13;;;8.52;100.00
45813;BME280;31519;45.408;10.962;2023-12-14T05:32:54;99914.63;;;8.29;100.00
45813;BME280;31519;45.408;10.962;2023-12-14T05:35:22;99918.88;;;7.94;100.00
45813;BME280;31519;45.408;10.962;2023-12-14T05:37:51;99918.22;;;7.75;100.00
45813;BME280;31519;45.408;10.962;2023-12-14T05:40:19;99930.38;;;7.89;100.00
45813;BME280;31519;45.408;10.962;2023-12-14T05:42:47;99938.72;;;7.61;100.00
45813;BME280;31519;45.408;10.962;2023-12-14T05:45:15;99940.69;;;7.41;100.00
45813;BME280;31519;45.408;10.962;2023-12-14T05:47:46;99949.69;;;7.68;100.00
45813;BME280;31519;45.408;10.962;2023-12-14T05:50:14;99940.09;;;7.94;100.00
45813;BME280;31519;45.408;10.962;2023-12-14T05:52:43;99939.94;;;7.77;100.00
45813;BME280;31519;45.408;10.962;2023-12-14T05:55:13;99937.28;;;7.77;100.00
45813;BME280;31519;45.408;10.962;2023-12-14T05:57:42;99943.00;;;8.06;100.00
45813;BME280;31519;45.408;10.962;2023-12-14T06:00:10;99943.59;;;7.67;100.00
45813;BME280;31519;45.408;10.962;2023-12-14T06:02:39;99957.63;;;7.68;100.00
45813;BME280;31519;45.408;10.962;2023-12-14T06:05:08;99961.78;;;7.46;100.00
45813;BME280;31519;45.408;10.962;2023-12-14T06:07:36;99981.31;;;7.37;100.00
45813;BME280;31519;45.408;10.962;2023-12-14T06:10:06;99997.13;;;7.28;100.00
45813;BME280;31519;45.408;10.962;2023-12-14T06:12:34;99997.91;;;7.42;100.00
45813;BME280;31519;45.408;10.962;2023-12-14T06:15:03;100007.31;;;7.48;100.00
45813;BME280;31519;45.408;10.962;2023-12-14T06:17:32;100008.97;;;7.31;100.00
45813;BME280;31519;45.408;10.962;2023-12-14T06:20:02;100003.22;;;7.56;100.00
45813;BME280;31519;45.408;10.962;2023-12-14T06:22:32;100005.94;;;7.78;100.00
45813;BME280;31519;45.408;10.962;2023-12-14T06:25:01;100005.53;;;7.30;100.00
45813;BME280;31519;45.408;10.962;2023-12-14T06:27:31;100018.03;;;6.97;100.00
45813;BME280;31519;45.408;10.962;2023-12-14T06:29:59;100023.97;;;6.76;100.00
45813;BME280;31519;45.408;10.962;2023-12-14T06:32:28;100029.09;;;7.18;100.00
45813;BME280;31519;45.408;10.962;2023-12-14T06:34:57;100034.84;;;7.20;100.00
45813;BME280;31519;45.408;10.962;2023-12-14T06:37:25;100037.47;;;6.93;100.00
45813;BME280;31519;45.408;10.962;2023-12-14T06:39:54;100038.38;;;6.69;100.00
45813;BME280;31519;45.408;10.962;2023-12-14T06:42:22;100029.09;;;6.53;100.00
45813;BME280;31519;45.408;10.962;2023-12-14T06:44:50;100037.97;;;6.44;100.00
45813;BME280;31519;45.408;10.962;2023-12-14T06:47:19;100041.97;;;6.04;100.00
45813;BME280;31519;45.408;10.962;2023-12-14T06:49:47;100034.34;;;6.21;100.00
45813;BME280;31519;45.408;10.962;2023-12-14T06:52:16;100051.56;;;6.37;100.00
45813;BME280;31519;45.408;10.962;2023-12-14T06:54:44;100051.91;;;6.49;100.00
45813;BME280;31519;45.408;10.962;2023-12-14T06:57:12;100057.66;;;6.89;100.00
45813;BME280;31519;45.408;10.962;2023-12-14T06:59:40;100066.06;;;7.09;100.00
45813;BME280;31519;45.408;10.962;2023-12-14T07:02:09;100066.69;;;7.01;100.00
45813;BME280;31519;45.408;10.962;2023-12-14T07:04:37;100057.41;;;7.04;100.00
45813;BME280;31519;45.408;10.962;2023-12-14T07:07:05;100070.59;;;7.23;100.00
45813;BME280;31519;45.408;10.962;2023-12-14T07:09:35;100066.25;;;7.13;100.00
45813;BME280;31519;45.408;10.962;2023-12-14T07:12:03;100066.00;;;7.28;100.00
45813;BME280;31519;45.408;10.962;2023-12-14T07:14:32;100080.28;;;6.81;100.00
45813;BME280;31519;45.408;10.962;2023-12-14T07:17:02;100077.84;;;6.85;100.00
45813;BME280;31519;45.408;10.962;2023-12-14T07:19:31;100084.13;;;7.21;100.00
45813;BME280;31519;45.408;10.962;2023-12-14T07:22:00;100093.88;;;7.07;100.00
45813;BME280;31519;45.408;10.962;2023-12-14T07:24:28;100091.22;;;7.39;100.00
45813;BME280;31519;45.408;10.962;2023-12-14T07:27:04;100089.81;;;7.15;100.00
45813;BME280;31519;45.408;10.962;2023-12-14T07:29:33;100100.41;;;7.15;100.00
45813;BME280;31519;45.408;10.962;2023-12-14T07:32:01;100117.31;;;7.00;100.00
45813;BME280;31519;45.408;10.962;2023-12-14T07:34:29;100122.63;;;7.00;100.00
45813;BME280;31519;45.408;10.962;2023-12-14T07:37:00;100122.63;;;7.00;100.00
45813;BME280;31519;45.408;10.962;2023-12-14T07:39:28;100124.88;;;7.39;100.00
45813;BME280;31519;45.408;10.962;2023-12-14T07:41:57;100120.41;;;7.67;100.00
45813;BME280;31519;45.408;10.962;2023-12-14T07:44:25;100120.41;;;7.67;100.00
45813;BME280;31519;45.408;10.962;2023-12-14T07:46:54;100119.84;;;7.70;100.00
45813;BME280;31519;45.408;10.962;2023-12-14T07:49:22;100127.97;;;7.73;100.00
45813;BME280;31519;45.408;10.962;2023-12-14T07:51:51;100141.78;;;7.56;100.00
45813;BME280;31519;45.408;10.962;2023-12-14T07:54:19;100155.44;;;7.64;100.00
45813;BME280;31519;45.408;10.962;2023-12-14T07:56:48;100158.91;;;7.78;100.00
45813;BME280;31519;45.408;10.962;2023-12-14T07:59:16;100160.88;;;7.86;100.00
45813;BME280;31519;45.408;10.962;2023-12-14T08:01:44;100157.44;;;7.85;100.00
45813;BME280;31519;45.408;10.962;2023-12-14T08:04:13;100166.66;;;7.61;100.00
45813;BME280;31519;45.408;10.962;2023-12-14T08:06:42;100164.59;;;7.71;100.00
45813;BME280;31519;45.408;10.962;2023-12-14T08:09:10;100168.72;;;7.77;100.00
45813;BME280;31519;45.408;10.962;2023-12-14T08:11:38;100167.06;;;7.95;100.00
45813;BME280;31519;45.408;10.962;2023-12-14T08:14:06;100161.94;;;8.12;100.00
45813;BME280;31519;45.408;10.962;2023-12-14T08:16:35;100163.72;;;8.03;100.00
45813;BME280;31519;45.408;10.962;2023-12-14T08:19:03;100173.84;;;8.01;100.00
45813;BME280;31519;45.408;10.962;2023-12-14T08:21:32;100178.47;;;8.09;100.00
45813;BME280;31519;45.408;10.962;2023-12-14T08:24:00;100187.22;;;8.23;100.00
45813;BME280;31519;45.408;10.962;2023-12-14T08:26:28;100192.91;;;8.17;100.00
45813;BME280;31519;45.408;10.962;2023-12-14T08:28:56;100190.47;;;8.20;100.00
45813;BME280;31519;45.408;10.962;2023-12-14T08:31:25;100190.34;;;8.12;100.00
45813;BME280;31519;45.408;10.962;2023-12-14T08:33:54;100201.56;;;8.22;100.00
45813;BME280;31519;45.408;10.962;2023-12-14T08:36:23;100203.84;;;8.29;100.00
45813;BME280;31519;45.408;10.962;2023-12-14T08:38:51;100209.06;;;8.48;100.00
45813;BME280;31519;45.408;10.962;2023-12-14T08:41:19;100215.03;;;8.39;100.00
45813;BME280;31519;45.408;10.962;2023-12-14T08:43:47;100218.28;;;8.50;100.00
45813;BME280;31519;45.408;10.962;2023-12-14T08:46:16;100221.63;;;8.42;100.00
45813;BME280;31519;45.408;10.962;2023-12-14T08:48:44;100228.72;;;8.60;100.00
45813;BME280;31519;45.408;10.962;2023-12-14T08:51:13;100235.34;;;8.71;100.00
45813;BME280;31519;45.408;10.962;2023-12-14T08:53:41;100245.59;;;8.64;100.00
45813;BME280;31519;45.408;10.962;2023-12-14T08:56:09;100251.81;;;8.60;100.00
45813;BME280;31519;45.408;10.962;2023-12-14T08:58:37;100245.59;;;8.64;100.00
45813;BME280;31519;45.408;10.962;2023-12-14T09:01:07;100247.28;;;8.74;100.00
45813;BME280;31519;45.408;10.962;2023-12-14T09:03:36;100254.94;;;8.89;100.00
45813;BME280;31519;45.408;10.962;2023-12-14T09:06:05;100258.00;;;8.69;100.00
45813;BME280;31519;45.408;10.962;2023-12-14T09:08:33;100258.19;;;8.72;100.00
45813;BME280;31519;45.408;10.962;2023-12-14T09:11:02;100265.25;;;8.77;100.00
45813;BME280;31519;45.408;10.962;2023-12-14T09:13:30;100263.44;;;9.00;100.00
45813;BME280;31519;45.408;10.962;2023-12-14T09:15:59;100261.97;;;9.07;100.00
45813;BME280;31519;45.408;10.962;2023-12-14T09:18:27;100264.63;;;9.07;100.00
45813;BME280;31519;45.408;10.962;2023-12-14T09:20:55;100275.56;;;9.28;100.00
45813;BME280;31519;45.408;10.962;2023-12-14T09:23:23;100276.66;;;9.27;100.00
45813;BME280;31519;45.408;10.962;2023-12-14T09:25:52;100280.72;;;9.24;100.00
45813;BME280;31519;45.408;10.962;2023-12-14T09:28:20;100285.50;;;9.00;100.00
45813;BME280;31519;45.408;10.962;2023-12-14T09:30:48;100288.38;;;9.26;100.00
45813;BME280;31519;45.408;10.962;2023-12-14T09:33:17;100283.47;;;8.83;100.00
45813;BME280;31519;45.408;10.962;2023-12-14T09:35:46;100288.66;;;8.88;100.00
45813;BME280;31519;45.408;10.962;2023-12-14T09:38:14;100291.44;;;8.83;100.00
45813;BME280;31519;45.408;10.962;2023-12-14T09:40:45;100287.69;;;8.71;100.00
45813;BME280;31519;45.408;10.962;2023-12-14T09:43:14;100288.97;;;8.87;100.00
45813;BME280;31519;45.408;10.962;2023-12-14T09:45:42;100294.13;;;9.42;100.00
45813;BME280;31519;45.408;10.962;2023-12-14T09:48:15;100296.19;;;9.45;100.00
45813;BME280;31519;45.408;10.962;2023-12-14T09:50:44;100296.06;;;9.27;100.00
45813;BME280;31519;45.408;10.962;2023-12-14T09:53:13;100300.50;;;9.18;100.00
45813;BME280;31519;45.408;10.962;2023-12-14T09:55:42;100301.06;;;9.29;100.00
45813;BME280;31519;45.408;10.962;2023-12-14T09:58:10;100306.59;;;9.77;100.00
45813;BME280;31519;45.408;10.962;2023-12-14T10:00:40;100304.50;;;9.65;100.00
45813;BME280;31519;45.408;10.962;2023-12-14T10:05:47;100312.53;;;9.52;100.00
45813;BME280;31519;45.408;10.962;2023-12-14T10:08:17;100311.16;;;9.41;100.00
45813;BME280;31519;45.408;10.962;2023-12-14T10:10:51;100316.16;;;9.20;100.00
45813;BME280;31519;45.408;10.962;2023-12-14T10:13:43;100311.84;;;9.10;100.00
45813;BME280;31519;45.408;10.962;2023-12-14T10:16:10;100311.81;;;9.24;100.00
45813;BME280;31519;45.408;10.962;2023-12-14T10:18:38;100308.94;;;9.34;100.00
45813;BME280;31519;45.408;10.962;2023-12-14T10:21:08;100313.50;;;9.56;100.00
45813;BME280;31519;45.408;10.962;2023-12-14T10:23:36;100310.81;;;9.33;100.00
45813;BME280;31519;45.408;10.962;2023-12-14T10:26:05;100315.59;;;9.67;100.00
45813;BME280;31519;45.408;10.962;2023-12-14T10:28:34;100321.41;;;9.47;100.00
45813;BME280;31519;45.408;10.962;2023-12-14T10:31:02;100325.81;;;9.52;100.00
45813;BME280;31519;45.408;10.962;2023-12-14T10:33:33;100319.47;;;9.39;100.00
45813;BME280;31519;45.408;10.962;2023-12-14T10:36:03;100321.81;;;9.41;100.00
45813;BME280;31519;45.408;10.962;2023-12-14T10:38:32;100321.13;;;9.35;100.00
45813;BME280;31519;45.408;10.962;2023-12-14T10:41:04;100323.53;;;9.23;100.00
45813;BME280;31519;45.408;10.962;2023-12-14T10:43:34;100325.25;;;9.41;100.00
45813;BME280;31519;45.408;10.962;2023-12-14T10:46:17;100323.78;;;9.71;100.00
45813;BME280;31519;45.408;10.962;2023-12-14T10:48:50;100323.91;;;9.88;100.00
45813;BME280;31519;45.408;10.962;2023-12-14T10:51:21;100332.34;;;9.90;100.00
45813;BME280;31519;45.408;10.962;2023-12-14T10:53:50;100339.25;;;9.91;100.00
45813;BME280;31519;45.408;10.962;2023-12-14T10:56:20;100335.72;;;10.04;100.00
45813;BME280;31519;45.408;10.962;2023-12-14T14:17:41;100413.09;;;11.31;100.00
45813;BME280;31519;45.408;10.962;2023-12-14T14:20:09;100429.72;;;11.37;100.00
45813;BME280;31519;45.408;10.962;2023-12-14T14:22:38;100441.50;;;11.36;100.00
45813;BME280;31519;45.408;10.962;2023-12-14T14:25:07;100446.13;;;11.13;100.00
45813;BME280;31519;45.408;10.962;2023-12-14T14:27:35;100451.16;;;11.15;100.00
45813;BME280;31519;45.408;10.962;2023-12-14T14:30:05;100467.25;;;11.01;100.00
45813;BME280;31519;45.408;10.962;2023-12-14T14:32:33;100468.31;;;11.00;100.00
45813;BME280;31519;45.408;10.962;2023-12-14T14:35:07;100463.34;;;11.07;100.00
45813;BME280;31519;45.408;10.962;2023-12-14T14:37:35;100472.38;;;10.89;100.00
45813;BME280;31519;45.408;10.962;2023-12-14T14:40:04;100484.72;;;10.85;100.00
45813;BME280;31519;45.408;10.962;2023-12-14T14:42:32;100479.22;;;10.81;100.00
45813;BME280;31519;45.408;10.962;2023-12-14T14:45:02;100481.19;;;10.98;100.00
45813;BME280;31519;45.408;10.962;2023-12-14T14:47:34;100481.50;;;10.43;100.00
45813;BME280;31519;45.408;10.962;2023-12-14T14:50:04;100492.81;;;10.49;100.00
45813;BME280;31519;45.408;10.962;2023-12-14T14:52:34;100501.69;;;10.22;100.00
45813;BME280;31519;45.408;10.962;2023-12-14T14:55:03;100505.75;;;10.42;100.00
45813;BME280;31519;45.408;10.962;2023-12-14T14:57:32;100511.06;;;10.64;100.00
45813;BME280;31519;45.408;10.962;2023-12-14T15:00:02;100510.13;;;10.60;100.00
45813;BME280;31519;45.408;10.962;2023-12-14T15:02:31;100513.34;;;10.48;100.00
45813;BME280;31519;45.408;10.962;2023-12-14T15:05:00;100524.78;;;10.49;100.00
45813;BME280;31519;45.408;10.962;2023-12-14T15:07:28;100530.50;;;10.42;100.00
45813;BME280;31519;45.408;10.962;2023-12-14T15:09:58;100536.91;;;10.41;100.00
45813;BME280;31519;45.408;10.962;2023-12-14T15:12:26;100532.16;;;10.52;100.00
45813;BME280;31519;45.408;10.962;2023-12-14T15:14:55;100542.19;;;10.55;100.00
45813;BME280;31519;45.408;10.962;2023-12-14T15:17:23;100544.31;;;10.44;100.00
45813;BME280;31519;45.408;10.962;2023-12-14T15:19:52;100551.13;;;10.37;100.00
45813;BME280;31519;45.408;10.962;2023-12-14T15:22:20;100546.13;;;10.35;100.00
45813;BME280;31519;45.408;10.962;2023-12-14T15:24:49;100540.34;;;10.19;100.00
45813;BME280;31519;45.408;10.962;2023-12-14T15:27:17;100544.78;;;9.97;100.00
45813;BME280;31519;45.408;10.962;2023-12-14T15:29:45;100557.56;;;10.08;100.00
45813;BME280;31519;45.408;10.962;2023-12-14T15:32:13;100559.28;;;9.91;100.00
45813;BME280;31519;45.408;10.962;2023-12-14T15:34:43;100564.41;;;9.87;100.00
45813;BME280;31519;45.408;10.962;2023-12-14T15:37:11;100570.91;;;9.95;100.00
45813;BME280;31519;45.408;10.962;2023-12-14T15:39:39;100572.47;;;9.96;100.00
45813;BME280;31519;45.408;10.962;2023-12-14T15:42:07;100566.19;;;9.92;100.00
45813;BME280;31519;45.408;10.962;2023-12-14T15:44:35;100583.22;;;9.91;100.00
45813;BME280;31519;45.408;10.962;2023-12-14T15:47:03;100581.38;;;9.77;100.00
45813;BME280;31519;45.408;10.962;2023-12-14T15:49:32;100582.94;;;9.51;100.00
45813;BME280;31519;45.408;10.962;2023-12-14T15:52:00;100594.75;;;9.45;100.00
45813;BME280;31519;45.408;10.962;2023-12-14T15:54:28;100597.41;;;9.45;100.00
45813;BME280;31519;45.408;10.962;2023-12-14T15:56:56;100598.28;;;9.41;100.00
45813;BME280;31519;45.408;10.962;2023-12-14T15:59:26;100595.56;;;9.13;100.00
45813;BME280;31519;45.408;10.962;2023-12-14T16:01:55;100598.97;;;9.32;100.00
45813;BME280;31519;45.408;10.962;2023-12-14T16:04:24;100611.53;;;9.27;100.00
45813;BME280;31519;45.408;10.962;2023-12-14T16:06:52;100607.72;;;9.33;100.00
45813;BME280;31519;45.408;10.962;2023-12-14T16:09:20;100612.66;;;9.40;100.00
45813;BME280;31519;45.408;10.962;2023-12-14T16:11:48;100615.81;;;9.42;100.00